This is the latest recevied weather packets stored in our database for station/object IZ4MEH-10. If no packets are shown the sender has not sent any weather packets the latest 10 day(s).
| Time | Temp. | Humidity | Pressure | Rain* | Wind** | Luminosity | Snow |
|---|---|---|---|---|---|---|---|
| 1777502193 | 15.56° C | 70% | 1018.6 hPa | - | - | - | - |
| 1777500392 | 16.67° C | 60% | 1018 hPa | - | - | - | - |
| 1777498590 | 17.78° C | 56% | 1017.5 hPa | - | - | - | - |
| 1777496789 | 17.78° C | 53% | 1017.1 hPa | - | - | - | - |
| 1777494988 | 18.33° C | 53% | 1016.7 hPa | - | - | - | - |
| 1777493187 | 18.33° C | 52% | 1016.4 hPa | - | - | - | - |
| 1777491386 | 18.89° C | 50% | 1016 hPa | - | - | - | - |
| 1777489585 | 18.89° C | 52% | 1015.4 hPa | - | - | - | - |
| 1777487784 | 19.44° C | 52% | 1014.8 hPa | - | - | - | - |
| 1777485982 | 20° C | 49% | 1014.3 hPa | - | - | - | - |
| 1777484181 | 21.11° C | 47% | 1013.6 hPa | - | - | - | - |
| 1777482380 | 21.67° C | 45% | 1013.3 hPa | - | - | - | - |
| 1777480579 | 22.78° C | 44% | 1013.1 hPa | - | - | - | - |
| 1777478778 | 23.33° C | 44% | 1013 hPa | - | - | - | - |
| 1777476977 | 24.44° C | 43% | 1012.9 hPa | - | - | - | - |
| 1777475176 | 25° C | 42% | 1012.9 hPa | - | - | - | - |
| 1777473375 | 25° C | 43% | 1013.1 hPa | - | - | - | - |
| 1777471573 | 25.56° C | 42% | 1013.2 hPa | - | - | - | - |
| 1777469771 | 25° C | 42% | 1013.4 hPa | - | - | - | - |
| 1777467970 | 25° C | 43% | 1013.6 hPa | - | - | - | - |
| 1777466168 | 25° C | 43% | 1013.6 hPa | - | - | - | - |
| 1777464367 | 25.56° C | 41% | 1013.8 hPa | - | - | - | - |
| 1777462566 | 25° C | 42% | 1014 hPa | - | - | - | - |
| 1777460764 | 26.11° C | 40% | 1014.1 hPa | - | - | - | - |
| 1777458963 | 32.22° C | 30% | 1014.2 hPa | - | - | - | - |
* Rain since midnight (hover to see other rain measurements)
** Current wind speed in m/s (hover to see current wind gust speed)